Time;durP1;ratioP1;P1;durP2;ratioP2;P2;SDS_P1;SDS_P2;PMS_P1;PMS_P2;Temp;Humidity;BMP_temperature;BMP_pressure;BME280_temperature;BME280_humidity;BME280_pressure;Samples;Min_cycle;Max_cycle;Signal;HPM_P1;HPM_P2
2022/11/24 00:01:09;;;;;;;8.70;8.30;;;20.60;62.00;;;;;;5030958;28;20998;-63
2022/11/24 00:03:37;;;;;;;8.20;7.87;;;20.60;62.00;;;;;;5031014;28;21017;-63
2022/11/24 00:06:06;;;;;;;8.53;8.23;;;20.60;62.00;;;;;;5049648;28;20476;-63
2022/11/24 00:08:33;;;;;;;8.93;8.73;;;20.60;62.00;;;;;;5051183;28;20486;-63
2022/11/24 00:11:05;;;;;;;7.70;7.60;;;20.60;61.90;;;;;;5054599;28;20501;-64
2022/11/24 00:13:34;;;;;;;8.00;7.80;;;20.60;61.90;;;;;;5054617;28;20440;-64
2022/11/24 00:16:09;;;;;;;8.17;7.90;;;20.60;61.90;;;;;;5036263;28;20550;-63
2022/11/24 00:18:38;;;;;;;9.10;8.80;;;20.60;61.90;;;;;;5034591;28;20468;-63
2022/11/24 00:21:05;;;;;;;9.00;8.77;;;20.60;61.90;;;;;;5034506;28;20495;-63
2022/11/24 00:23:32;;;;;;;8.80;8.50;;;20.60;62.00;;;;;;5045426;28;20498;-63
2022/11/24 00:26:10;;;;;;;8.40;8.20;;;20.60;62.00;;;;;;5054257;28;20901;-63
2022/11/24 00:28:38;;;;;;;9.43;9.13;;;20.60;62.00;;;;;;5054535;28;20882;-63
2022/11/24 00:31:15;;;;;;;8.63;8.43;;;20.60;62.00;;;;;;5054434;28;20444;-63
2022/11/24 00:33:43;;;;;;;8.50;8.20;;;20.60;62.00;;;;;;5041866;28;20506;-63
2022/11/24 00:36:10;;;;;;;8.20;8.00;;;20.60;62.10;;;;;;5034270;28;20884;-63
2022/11/24 00:38:37;;;;;;;8.60;8.20;;;20.60;62.10;;;;;;5034104;28;20520;-64
2022/11/24 00:41:05;;;;;;;8.47;8.17;;;20.60;62.10;;;;;;5034202;28;20495;-63
2022/11/24 00:43:32;;;;;;;9.53;9.17;;;20.60;62.10;;;;;;5044546;28;20443;-64
2022/11/24 00:45:58;;;;;;;8.47;8.27;;;20.60;62.20;;;;;;5054088;28;20819;-64
2022/11/24 00:48:25;;;;;;;9.20;8.80;;;20.50;62.20;;;;;;5053952;28;20518;-64
2022/11/24 00:50:58;;;;;;;10.17;9.87;;;20.50;62.20;;;;;;5054068;28;20440;-62
2022/11/24 00:53:26;;;;;;;8.63;8.43;;;20.50;62.30;;;;;;5049114;28;20440;-64
2022/11/24 00:55:53;;;;;;;9.27;8.97;;;20.50;62.30;;;;;;5053863;28;20440;-64
2022/11/24 00:58:21;;;;;;;9.00;8.77;;;20.50;62.40;;;;;;5053789;28;20546;-63
2022/11/24 01:00:48;;;;;;;8.70;8.40;;;20.50;62.50;;;;;;5053845;28;20448;-64
2022/11/24 01:03:16;;;;;;;8.77;8.50;;;20.50;62.60;;;;;;5039972;28;20475;-63
2022/11/24 01:05:44;;;;;;;9.53;9.20;;;20.50;62.70;;;;;;5033759;28;20503;-63
2022/11/24 01:08:12;;;;;;;8.87;8.67;;;20.50;62.80;;;;;;5034061;28;20890;-60
2022/11/24 01:10:39;;;;;;;8.50;8.10;;;20.40;62.70;;;;;;5033711;28;21002;-61
2022/11/24 01:13:06;;;;;;;9.60;9.40;;;20.50;62.80;;;;;;5044987;28;20447;-59
2022/11/24 01:15:35;;;;;;;9.07;8.83;;;20.40;62.80;;;;;;5053570;28;20448;-61
2022/11/24 01:18:03;;;;;;;8.90;8.70;;;20.40;62.80;;;;;;5053694;28;20460;-59
2022/11/24 01:20:31;;;;;;;8.00;7.80;;;20.50;63.00;;;;;;5052479;28;20510;-60
2022/11/24 01:22:57;;;;;;;8.50;8.30;;;20.50;63.00;;;;;;5042556;28;20449;-60
2022/11/24 01:25:26;;;;;;;9.03;8.80;;;20.50;63.00;;;;;;5033450;28;20442;-60
2022/11/24 01:27:53;;;;;;;8.60;8.40;;;20.40;62.80;;;;;;5033209;28;20469;-63
2022/11/24 01:30:20;;;;;;;8.20;8.00;;;20.40;62.80;;;;;;5033378;28;20538;-61
2022/11/24 01:32:47;;;;;;;8.90;8.70;;;20.40;62.80;;;;;;5041664;28;20539;-62
2022/11/24 01:35:14;;;;;;;9.00;8.70;;;20.40;62.80;;;;;;5053095;28;20862;-61
2022/11/24 01:37:41;;;;;;;8.30;8.10;;;20.40;62.80;;;;;;5053098;28;20460;-62
2022/11/24 01:40:10;;;;;;;8.50;8.30;;;20.40;62.80;;;;;;5053045;28;20502;-62
2022/11/24 01:42:43;;;;;;;8.87;8.60;;;20.40;62.90;;;;;;5045831;28;20445;-60
2022/11/24 01:45:34;;;;;;;8.47;8.27;;;20.40;62.90;;;;;;5033156;28;20449;-62
2022/11/24 01:48:05;;;;;;;8.73;8.53;;;20.40;62.90;;;;;;5033006;28;20639;-62
2022/11/24 01:50:33;;;;;;;8.70;8.43;;;20.40;62.90;;;;;;5036215;28;20444;-62
2022/11/24 01:52:59;;;;;;;8.80;8.60;;;20.40;63.00;;;;;;5052478;28;20479;-61
2022/11/24 01:55:31;;;;;;;8.80;8.30;;;20.40;63.10;;;;;;5052811;28;20502;-62
2022/11/24 01:58:04;;;;;;;8.63;8.43;;;20.40;63.20;;;;;;5052599;28;20464;-59
2022/11/24 02:00:31;;;;;;;8.77;8.50;;;20.40;63.10;;;;;;5049614;28;20448;-61
2022/11/24 02:02:58;;;;;;;8.40;8.10;;;20.40;63.20;;;;;;5032564;28;21022;-60
2022/11/24 02:05:30;;;;;;;8.97;8.67;;;20.40;63.30;;;;;;5032699;28;20446;-61
2022/11/24 02:08:00;;;;;;;8.60;8.40;;;20.40;63.40;;;;;;5032558;28;20534;-60
2022/11/24 02:10:28;;;;;;;8.60;8.40;;;20.30;63.40;;;;;;5048306;28;20489;-61
2022/11/24 02:12:57;;;;;;;8.50;8.30;;;20.40;63.60;;;;;;5052216;28;20441;-61
2022/11/24 02:15:25;;;;;;;8.40;8.20;;;20.40;63.60;;;;;;5052311;28;20436;-60
2022/11/24 02:17:52;;;;;;;9.83;9.50;;;20.30;63.50;;;;;;5052330;28;20509;-61
2022/11/24 02:20:20;;;;;;;8.90;8.70;;;20.30;63.60;;;;;;5037267;28;20870;-60
2022/11/24 02:22:54;;;;;;;8.73;8.43;;;20.30;63.50;;;;;;5032125;28;20445;-59
2022/11/24 02:25:30;;;;;;;8.50;8.30;;;20.30;63.60;;;;;;5032375;28;20445;-61
2022/11/24 02:28:01;;;;;;;9.20;8.90;;;20.30;63.50;;;;;;5033186;28;20484;-61
2022/11/24 02:30:28;;;;;;;8.83;8.57;;;20.30;63.60;;;;;;5032222;28;20547;-60
2022/11/24 02:32:56;;;;;;;8.27;7.93;;;20.30;63.60;;;;;;5031956;28;20498;-61
2022/11/24 02:35:23;;;;;;;8.33;8.03;;;20.30;63.60;;;;;;5032258;28;20601;-60
2022/11/24 02:37:50;;;;;;;9.53;9.23;;;20.30;63.60;;;;;;5035677;28;20974;-59
2022/11/24 02:40:23;;;;;;;8.47;8.27;;;20.30;63.60;;;;;;5052032;28;20437;-60
2022/11/24 02:42:53;;;;;;;9.30;8.93;;;20.30;63.70;;;;;;5051845;28;20536;-59
2022/11/24 02:45:22;;;;;;;8.40;8.20;;;20.30;63.80;;;;;;5051840;28;20498;-59
2022/11/24 02:47:49;;;;;;;8.80;8.60;;;20.30;63.80;;;;;;5047787;28;20491;-62
2022/11/24 02:50:16;;;;;;;8.13;7.93;;;20.30;64.00;;;;;;5031831;28;20449;-62
2022/11/24 02:52:43;;;;;;;9.87;9.47;;;20.20;64.00;;;;;;5031655;28;20870;-62
2022/11/24 02:55:10;;;;;;;8.30;8.10;;;20.30;64.10;;;;;;5031749;28;20990;-62
2022/11/24 02:57:37;;;;;;;8.80;8.60;;;20.20;64.00;;;;;;5032753;28;20461;-63
2022/11/24 03:00:05;;;;;;;8.57;8.37;;;20.20;64.00;;;;;;5031849;28;20495;-59
2022/11/24 03:02:33;;;;;;;8.40;8.10;;;20.20;63.90;;;;;;5031510;28;20500;-62
2022/11/24 03:05:00;;;;;;;9.13;8.90;;;20.20;64.00;;;;;;5031673;28;20863;-61
2022/11/24 03:07:28;;;;;;;9.77;9.37;;;20.20;64.10;;;;;;5031374;28;20488;-60
2022/11/24 03:09:54;;;;;;;8.47;8.20;;;20.20;64.10;;;;;;5031736;28;20536;-61
2022/11/24 03:12:21;;;;;;;9.03;8.83;;;20.20;64.20;;;;;;5031415;28;20444;-61
2022/11/24 03:14:48;;;;;;;8.57;8.27;;;20.10;64.20;;;;;;5031558;28;20964;-59
2022/11/24 03:17:15;;;;;;;8.53;8.23;;;20.20;64.30;;;;;;5031176;28;20519;-60
2022/11/24 03:19:44;;;;;;;9.07;8.87;;;20.20;64.30;;;;;;5031627;28;20499;-62
2022/11/24 03:22:12;;;;;;;9.30;9.00;;;20.10;64.30;;;;;;5031236;28;20480;-62
2022/11/24 03:24:39;;;;;;;8.40;8.20;;;20.20;65.10;;;;;;5031622;28;20523;-61
2022/11/24 03:27:06;;;;;;;8.50;8.23;;;20.20;64.40;;;;;;5031111;28;20894;-60
2022/11/24 03:29:33;;;;;;;8.40;8.20;;;20.10;64.30;;;;;;5031366;28;20483;-60
2022/11/24 03:32:00;;;;;;;8.70;8.50;;;20.10;64.30;;;;;;5031241;28;20932;-61
2022/11/24 03:34:27;;;;;;;8.50;8.30;;;20.10;64.50;;;;;;5031205;28;20444;-61
2022/11/24 03:36:55;;;;;;;8.50;8.30;;;20.10;64.50;;;;;;5030995;28;20454;-62
2022/11/24 03:39:22;;;;;;;8.60;8.40;;;20.10;64.50;;;;;;5031322;28;20445;-60
2022/11/24 03:41:50;;;;;;;9.13;8.87;;;20.10;64.50;;;;;;5031083;28;20445;-62
2022/11/24 03:44:17;;;;;;;9.70;9.40;;;20.10;64.60;;;;;;5033228;28;20535;-60
2022/11/24 03:46:44;;;;;;;8.57;8.27;;;20.10;64.70;;;;;;5034744;28;20899;-60
2022/11/24 03:49:11;;;;;;;8.17;7.97;;;20.00;64.50;;;;;;5035041;28;20548;-62
2022/11/24 03:51:38;;;;;;;9.30;9.00;;;20.00;64.70;;;;;;5035033;28;20510;-61
2022/11/24 03:54:07;;;;;;;8.67;8.47;;;20.10;64.90;;;;;;5035050;28;20441;-60
2022/11/24 03:56:34;;;;;;;8.50;8.20;;;20.00;64.80;;;;;;5034795;28;20959;-60
2022/11/24 03:59:01;;;;;;;8.57;8.37;;;20.00;64.90;;;;;;5035149;28;20519;-60
2022/11/24 04:01:28;;;;;;;8.23;8.03;;;20.00;65.00;;;;;;5034787;28;20460;-61
2022/11/24 04:03:55;;;;;;;8.63;8.37;;;20.00;64.90;;;;;;5034844;28;20503;-59
2022/11/24 04:06:22;;;;;;;7.90;7.70;;;20.00;64.90;;;;;;5034501;28;20514;-60
2022/11/24 04:08:49;;;;;;;9.70;9.40;;;19.90;65.00;;;;;;5034609;28;20991;-60
2022/11/24 04:13:58;;;;;;;8.47;8.27;;;19.90;65.10;;;;;;5034419;28;20433;-61
2022/11/24 04:16:24;;;;;;;9.23;8.93;;;19.90;65.10;;;;;;5034511;28;21037;-59
2022/11/24 04:18:52;;;;;;;8.70;8.50;;;19.90;65.00;;;;;;5034580;28;20461;-62
2022/11/24 04:21:19;;;;;;;8.80;8.50;;;19.90;65.10;;;;;;5034432;28;21104;-56
2022/11/24 04:23:46;;;;;;;9.07;8.87;;;19.80;65.10;;;;;;5034246;28;20967;-61
2022/11/24 04:26:13;;;;;;;8.90;8.70;;;19.80;65.10;;;;;;5034475;28;20433;-60
2022/11/24 04:28:42;;;;;;;9.57;9.37;;;19.80;65.30;;;;;;5034412;28;20993;-60
2022/11/24 04:31:09;;;;;;;9.03;8.73;;;19.80;65.30;;;;;;5034383;28;20967;-62
2022/11/24 04:33:35;;;;;;;9.23;8.83;;;19.80;65.40;;;;;;5034035;28;20441;-60
2022/11/24 04:36:02;;;;;;;10.10;9.80;;;19.80;66.30;;;;;;5034459;28;20447;-62
2022/11/24 04:38:29;;;;;;;9.57;9.17;;;19.70;65.50;;;;;;5034479;28;20457;-61
2022/11/24 04:40:56;;;;;;;9.37;9.13;;;19.80;65.80;;;;;;5034138;28;20804;-59
2022/11/24 04:43:23;;;;;;;10.13;9.83;;;19.80;65.80;;;;;;5034032;28;20441;-62
2022/11/24 04:45:51;;;;;;;9.53;9.23;;;19.70;65.80;;;;;;5034164;28;20879;-60
2022/11/24 04:48:18;;;;;;;10.17;9.70;;;19.80;66.00;;;;;;5033965;28;20888;-60
2022/11/24 04:50:45;;;;;;;10.67;10.37;;;19.70;65.80;;;;;;5034072;28;20452;-62
2022/11/24 04:53:12;;;;;;;9.80;9.50;;;19.70;65.90;;;;;;5033581;28;20808;-60
2022/11/24 04:55:39;;;;;;;9.70;9.40;;;19.70;66.00;;;;;;5032448;28;20449;-60
2022/11/24 04:58:08;;;;;;;9.80;9.50;;;19.70;66.00;;;;;;5033943;28;20457;-59
2022/11/24 05:00:35;;;;;;;10.37;10.07;;;19.70;66.10;;;;;;5033841;28;20527;-62
2022/11/24 05:03:03;;;;;;;10.80;10.50;;;19.70;67.00;;;;;;5033461;28;20832;-59
2022/11/24 05:05:30;;;;;;;10.90;10.53;;;19.70;66.30;;;;;;5033788;28;20445;-61
2022/11/24 05:07:58;;;;;;;11.13;10.83;;;19.70;66.30;;;;;;5033657;28;20491;-61
2022/11/24 05:10:35;;;;;;;10.43;10.13;;;19.70;66.40;;;;;;5033734;28;20449;-63
2022/11/24 05:13:04;;;;;;;11.10;10.70;;;19.70;67.30;;;;;;5033252;28;20449;-61
2022/11/24 05:15:31;;;;;;;10.10;9.90;;;19.70;66.40;;;;;;5033287;28;20964;-59
2022/11/24 05:17:58;;;;;;;9.87;9.57;;;19.70;66.60;;;;;;5033412;28;20483;-61
2022/11/24 05:20:26;;;;;;;10.30;10.00;;;19.70;66.90;;;;;;5033626;28;20441;-59
2022/11/24 05:22:53;;;;;;;10.10;9.80;;;19.70;67.10;;;;;;5032984;28;20467;-62
2022/11/24 05:25:20;;;;;;;11.20;10.60;;;19.60;67.10;;;;;;5033471;28;20447;-60
2022/11/24 05:27:47;;;;;;;11.00;10.70;;;19.60;67.20;;;;;;5033040;28;20485;-59
2022/11/24 05:30:14;;;;;;;11.10;10.80;;;19.60;67.20;;;;;;5033647;28;20467;-60
2022/11/24 05:32:41;;;;;;;10.60;10.30;;;19.60;67.20;;;;;;5033040;28;20445;-59
2022/11/24 05:35:09;;;;;;;12.00;11.07;;;19.60;67.20;;;;;;5033020;28;20531;-58
2022/11/24 05:37:37;;;;;;;11.87;11.47;;;19.60;67.30;;;;;;5033149;28;20519;-59
2022/11/24 05:40:05;;;;;;;11.07;10.77;;;19.60;67.40;;;;;;5033193;28;20448;-62
2022/11/24 05:42:41;;;;;;;11.43;10.83;;;19.60;67.40;;;;;;5032851;28;20477;-62
2022/11/24 05:45:10;;;;;;;10.40;10.00;;;19.60;67.40;;;;;;5032455;28;20441;-59
2022/11/24 05:47:38;;;;;;;10.60;10.23;;;19.60;67.50;;;;;;5032837;28;20563;-61
2022/11/24 05:50:05;;;;;;;11.97;11.57;;;19.60;67.70;;;;;;5032959;28;20451;-61
2022/11/24 05:52:32;;;;;;;10.97;10.67;;;19.60;67.80;;;;;;5032687;28;20498;-60
2022/11/24 05:55:00;;;;;;;12.63;11.83;;;19.50;67.60;;;;;;5032520;28;20472;-59
2022/11/24 05:57:27;;;;;;;14.57;12.90;;;19.60;67.80;;;;;;5032876;28;20508;-61
2022/11/24 05:59:54;;;;;;;13.23;12.37;;;19.60;68.40;;;;;;5032810;28;20512;-59
2022/11/24 06:02:21;;;;;;;25.47;15.73;;;19.70;68.30;;;;;;5032212;28;20865;-61
2022/11/24 06:04:48;;;;;;;16.27;14.77;;;19.70;70.30;;;;;;5032671;28;20948;-60
2022/11/24 06:07:15;;;;;;;15.50;14.27;;;19.70;75.00;;;;;;5031647;28;20483;-61
2022/11/24 06:09:42;;;;;;;17.13;15.50;;;19.70;79.50;;;;;;5032068;28;20497;-51
2022/11/24 06:12:11;;;;;;;19.00;13.70;;;19.80;76.30;;;;;;5031807;28;20512;-55
2022/11/24 06:14:39;;;;;;;14.20;13.30;;;19.80;74.70;;;;;;5032667;28;20443;-55
2022/11/24 06:17:06;;;;;;;15.63;14.53;;;19.90;74.20;;;;;;5032557;28;20469;-53
2022/11/24 06:19:33;;;;;;;16.57;15.10;;;19.90;73.60;;;;;;5032335;28;20522;-50
2022/11/24 06:22:00;;;;;;;25.23;16.00;;;19.90;73.00;;;;;;5032108;28;20477;-52
2022/11/24 06:24:27;;;;;;;14.90;13.80;;;19.90;72.60;;;;;;5032332;28;20445;-51
2022/11/24 06:26:53;;;;;;;17.43;13.93;;;20.00;72.10;;;;;;5032116;28;20534;-53
2022/11/24 06:29:22;;;;;;;15.60;14.70;;;20.00;71.60;;;;;;5032232;28;20441;-51
2022/11/24 06:31:48;;;;;;;14.07;13.20;;;20.00;71.20;;;;;;5032170;28;20488;-53
2022/11/24 06:34:15;;;;;;;15.97;14.77;;;20.00;70.90;;;;;;5032096;28;20444;-51
2022/11/24 06:36:42;;;;;;;16.20;14.90;;;20.00;70.60;;;;;;5032238;28;20447;-53
2022/11/24 06:39:10;;;;;;;15.37;14.37;;;20.00;70.30;;;;;;5032077;28;20837;-53
2022/11/24 06:41:37;;;;;;;15.60;14.60;;;20.00;70.00;;;;;;5031996;28;20446;-50
2022/11/24 06:44:04;;;;;;;16.37;14.80;;;20.00;69.90;;;;;;5031938;28;20448;-54
2022/11/24 06:46:33;;;;;;;15.10;14.20;;;20.10;70.00;;;;;;5031855;28;20441;-51
2022/11/24 06:49:01;;;;;;;14.10;13.30;;;20.10;70.00;;;;;;5031813;28;20513;-50
2022/11/24 06:51:27;;;;;;;15.07;13.53;;;20.10;69.60;;;;;;5031769;28;20860;-51
2022/11/24 06:53:55;;;;;;;15.20;13.23;;;20.10;69.40;;;;;;5032049;28;20961;-54
2022/11/24 06:56:23;;;;;;;16.03;14.83;;;20.10;69.20;;;;;;5031909;28;20449;-54
2022/11/24 06:58:52;;;;;;;14.07;13.27;;;20.10;68.80;;;;;;5031622;28;20489;-52
2022/11/24 07:01:21;;;;;;;14.63;13.63;;;20.10;68.60;;;;;;5031506;28;20958;-52
2022/11/24 07:03:50;;;;;;;15.50;14.47;;;20.10;68.40;;;;;;5031799;28;20472;-52
2022/11/24 07:06:18;;;;;;;17.30;13.90;;;20.10;68.30;;;;;;5031686;28;20481;-51
2022/11/24 07:08:46;;;;;;;13.87;13.03;;;20.10;68.10;;;;;;5032146;28;20488;-57
2022/11/24 07:11:15;;;;;;;14.47;13.50;;;20.10;68.00;;;;;;5031372;28;20483;-58
2022/11/24 07:13:42;;;;;;;14.47;13.67;;;20.10;67.80;;;;;;5031519;28;20481;-58
2022/11/24 07:16:16;;;;;;;14.60;13.80;;;20.10;67.70;;;;;;5031615;28;20449;-56
2022/11/24 07:18:43;;;;;;;15.07;14.07;;;20.10;67.50;;;;;;5030780;28;20544;-54
2022/11/24 07:21:11;;;;;;;14.27;13.13;;;20.10;67.30;;;;;;5031352;28;20962;-56
2022/11/24 07:23:39;;;;;;;14.60;13.33;;;20.10;67.30;;;;;;5031595;28;20429;-56
2022/11/24 07:26:07;;;;;;;15.23;14.20;;;20.00;67.10;;;;;;5031434;28;20540;-58
2022/11/24 07:28:35;;;;;;;13.63;12.97;;;20.00;67.00;;;;;;5031386;28;20572;-56
2022/11/24 07:31:05;;;;;;;15.43;14.60;;;20.00;67.80;;;;;;5031349;28;20808;-55
2022/11/24 07:33:32;;;;;;;13.70;13.20;;;20.00;67.00;;;;;;5031361;28;20445;-57
2022/11/24 07:35:59;;;;;;;14.10;13.20;;;20.00;66.90;;;;;;5031304;28;20529;-56
2022/11/24 07:38:29;;;;;;;14.97;14.07;;;20.00;66.80;;;;;;5031280;28;20896;-55
2022/11/24 07:40:59;;;;;;;14.07;13.43;;;20.00;66.70;;;;;;5031179;28;20532;-55
2022/11/24 07:43:26;;;;;;;13.50;12.90;;;20.00;66.70;;;;;;5031362;28;20448;-54
2022/11/24 07:45:53;;;;;;;13.60;13.00;;;20.00;66.60;;;;;;5031272;28;20451;-58
2022/11/24 07:48:20;;;;;;;13.30;12.70;;;19.90;66.50;;;;;;5031095;28;20494;-55
2022/11/24 07:50:47;;;;;;;14.00;13.23;;;19.90;66.40;;;;;;5031206;28;20446;-55
2022/11/24 07:53:14;;;;;;;13.60;12.77;;;19.90;66.30;;;;;;5030971;28;20886;-57
2022/11/24 07:55:42;;;;;;;13.27;12.57;;;19.90;66.30;;;;;;5031055;28;20476;-57
2022/11/24 07:58:09;;;;;;;12.73;12.33;;;19.90;66.30;;;;;;5031036;28;20467;-56
2022/11/24 08:00:36;;;;;;;13.60;12.77;;;19.90;66.50;;;;;;5031325;28;20539;-59
2022/11/24 08:03:02;;;;;;;12.73;12.10;;;19.90;66.30;;;;;;5030884;28;20467;-57
2022/11/24 08:05:29;;;;;;;13.50;13.00;;;19.90;66.20;;;;;;5031089;28;20546;-56
2022/11/24 08:07:56;;;;;;;13.07;12.57;;;19.90;66.20;;;;;;5030947;28;20495;-57
2022/11/24 08:10:23;;;;;;;12.63;11.90;;;19.90;66.10;;;;;;5031171;28;20815;-54
2022/11/24 08:12:51;;;;;;;13.37;12.67;;;20.00;66.00;;;;;;5030814;28;20451;-58
2022/11/24 08:15:18;;;;;;;14.57;13.60;;;20.00;65.90;;;;;;5030921;28;20452;-60
2022/11/24 08:17:45;;;;;;;13.83;12.93;;;20.00;65.80;;;;;;5030963;28;20552;-56
2022/11/24 08:20:12;;;;;;;12.73;11.80;;;20.00;65.60;;;;;;5031003;28;20440;-54
2022/11/24 08:22:39;;;;;;;12.67;11.93;;;20.00;65.50;;;;;;5030784;28;20482;-55
2022/11/24 08:25:06;;;;;;;12.57;12.10;;;20.00;65.40;;;;;;5031034;28;20864;-58
2022/11/24 08:27:33;;;;;;;12.50;12.00;;;20.00;65.20;;;;;;5031069;28;20538;-54
2022/11/24 08:30:01;;;;;;;13.37;12.87;;;20.10;65.20;;;;;;5032032;28;20883;-56
2022/11/24 08:32:28;;;;;;;13.23;12.80;;;20.10;65.10;;;;;;5034356;28;20469;-57
2022/11/24 08:34:55;;;;;;;12.80;12.30;;;20.10;65.80;;;;;;5034358;28;20528;-52
2022/11/24 08:37:24;;;;;;;13.60;13.00;;;20.00;64.80;;;;;;5034344;28;21031;-58
2022/11/24 08:39:51;;;;;;;13.13;12.63;;;20.10;64.80;;;;;;5034477;28;20958;-57
2022/11/24 08:42:18;;;;;;;13.70;13.10;;;20.00;64.60;;;;;;5034039;28;20464;-55
2022/11/24 08:44:44;;;;;;;12.77;12.37;;;20.00;64.50;;;;;;5034354;28;20445;-58
2022/11/24 08:47:13;;;;;;;14.20;13.60;;;20.00;64.50;;;;;;5034045;28;20460;-57
2022/11/24 08:49:39;;;;;;;12.80;12.30;;;20.00;64.50;;;;;;5034049;28;20481;-56
2022/11/24 08:52:06;;;;;;;12.37;11.73;;;20.00;64.40;;;;;;5033821;28;20539;-57
2022/11/24 08:54:33;;;;;;;12.40;11.70;;;20.00;64.40;;;;;;5033958;28;20936;-58
2022/11/24 08:57:00;;;;;;;13.87;13.27;;;20.10;64.30;;;;;;5033872;28;20451;-53
2022/11/24 08:59:26;;;;;;;13.63;12.97;;;20.00;64.30;;;;;;5033980;28;20443;-55
2022/11/24 09:01:53;;;;;;;13.93;13.33;;;20.00;64.20;;;;;;5033707;28;20857;-58
2022/11/24 09:04:21;;;;;;;13.10;12.70;;;20.00;64.20;;;;;;5033890;28;20483;-58
2022/11/24 09:06:48;;;;;;;13.03;12.20;;;20.00;64.20;;;;;;5033750;28;20445;-56
2022/11/24 09:09:15;;;;;;;13.53;13.03;;;20.00;64.10;;;;;;5034001;28;21071;-58
2022/11/24 09:11:42;;;;;;;13.10;12.50;;;20.10;64.10;;;;;;5033450;28;20447;-57
2022/11/24 09:14:09;;;;;;;13.13;12.73;;;20.00;63.90;;;;;;5033713;28;20481;-55
2022/11/24 09:16:36;;;;;;;12.43;11.93;;;20.00;63.90;;;;;;5033690;28;20444;-57
2022/11/24 09:19:06;;;;;;;12.67;12.10;;;20.00;63.90;;;;;;5033536;28;20555;-56
2022/11/24 09:21:37;;;;;;;12.70;12.10;;;20.00;64.70;;;;;;5033392;28;20445;-59
2022/11/24 09:24:06;;;;;;;12.53;12.03;;;20.00;64.60;;;;;;5033446;28;20503;-56
2022/11/24 09:26:34;;;;;;;13.00;12.60;;;20.00;63.70;;;;;;5033641;28;20457;-55
2022/11/24 09:29:04;;;;;;;11.90;11.50;;;20.00;63.70;;;;;;5033225;28;20520;-55
2022/11/24 09:31:33;;;;;;;11.80;11.50;;;20.00;63.70;;;;;;5033254;28;20488;-58
2022/11/24 09:34:00;;;;;;;11.27;10.97;;;20.00;63.60;;;;;;5033202;28;20453;-58
2022/11/24 09:36:28;;;;;;;12.90;12.50;;;19.90;63.30;;;;;;5033338;28;20477;-58
2022/11/24 09:38:56;;;;;;;11.17;10.80;;;20.00;63.30;;;;;;5033051;28;20461;-57
2022/11/24 09:41:39;;;;;;;11.50;11.10;;;19.90;63.20;;;;;;5032329;28;20527;-57
2022/11/24 09:44:14;;;;;;;12.50;12.03;;;19.90;63.20;;;;;;5033104;28;20452;-55
2022/11/24 09:46:52;;;;;;;12.00;11.60;;;19.90;63.30;;;;;;5033187;28;20441;-54
2022/11/24 09:49:29;;;;;;;12.53;12.13;;;19.90;63.30;;;;;;5033051;28;20753;-59
2022/11/24 09:51:57;;;;;;;11.07;10.77;;;19.90;63.30;;;;;;5032723;28;20451;-56
2022/11/24 09:54:28;;;;;;;12.47;11.97;;;19.90;63.20;;;;;;5033063;28;20524;-57
2022/11/24 09:56:57;;;;;;;11.87;11.47;;;19.90;63.20;;;;;;5032817;28;20528;-55
2022/11/24 09:59:26;;;;;;;11.80;11.50;;;19.90;64.00;;;;;;5032923;28;20516;-56
2022/11/24 10:01:54;;;;;;;11.63;11.23;;;19.90;63.20;;;;;;5032497;28;20453;-58
2022/11/24 10:04:24;;;;;;;11.50;11.20;;;19.80;63.20;;;;;;5032966;28;20449;-58
2022/11/24 10:06:59;;;;;;;12.73;12.20;;;19.80;63.30;;;;;;5032680;28;20437;-58
2022/11/24 10:09:51;;;;;;;12.23;11.93;;;19.80;63.30;;;;;;5032615;28;20479;-57
2022/11/24 10:12:30;;;;;;;12.77;12.47;;;19.90;63.40;;;;;;5032576;28;20449;-57
2022/11/24 10:15:29;;;;;;;11.60;11.20;;;19.90;63.40;;;;;;5032537;28;20878;-57
2022/11/24 10:18:22;;;;;;;12.57;12.17;;;19.90;63.40;;;;;;5032380;28;20496;-58
2022/11/24 10:20:55;;;;;;;12.50;12.10;;;19.90;63.30;;;;;;5032563;28;20528;-57
2022/11/24 10:23:46;;;;;;;12.30;11.90;;;19.90;63.20;;;;;;5032652;28;20449;-58
2022/11/24 10:26:19;;;;;;;12.60;12.20;;;20.00;63.30;;;;;;5032228;28;20447;-57
2022/11/24 10:28:53;;;;;;;12.67;12.27;;;20.00;63.20;;;;;;5032197;28;20580;-58
2022/11/24 10:31:29;;;;;;;11.87;11.53;;;20.00;63.20;;;;;;5032053;28;20472;-58
2022/11/24 10:33:57;;;;;;;12.50;12.00;;;20.00;63.00;;;;;;5031983;28;20444;-55
2022/11/24 10:36:36;;;;;;;12.97;12.50;;;20.00;63.00;;;;;;5032042;28;20499;-57
2022/11/24 10:39:10;;;;;;;12.53;12.10;;;20.00;62.90;;;;;;5032040;28;20467;-58
2022/11/24 10:41:46;;;;;;;11.23;10.83;;;20.00;62.80;;;;;;5031864;28;20484;-58
2022/11/24 10:44:14;;;;;;;12.60;12.20;;;20.10;62.80;;;;;;5031989;28;20441;-56
2022/11/24 10:46:41;;;;;;;12.20;11.90;;;20.10;62.80;;;;;;5032024;28;20909;-55
2022/11/24 10:49:17;;;;;;;12.93;12.53;;;20.00;62.60;;;;;;5031736;28;20485;-57
2022/11/24 10:51:52;;;;;;;12.03;11.73;;;20.00;62.60;;;;;;5031960;28;20991;-55
2022/11/24 10:54:21;;;;;;;11.97;11.67;;;20.10;62.60;;;;;;5031794;28;20853;-57
2022/11/24 10:56:51;;;;;;;13.60;13.10;;;20.10;62.50;;;;;;5031814;28;20535;-59
2022/11/24 10:59:37;;;;;;;11.63;11.23;;;20.10;62.40;;;;;;5031751;28;21039;-56
2022/11/24 11:02:34;;;;;;;12.40;12.00;;;20.10;62.40;;;;;;5031581;28;20476;-54
2022/11/24 11:05:40;;;;;;;11.40;11.10;;;20.10;62.40;;;;;;5031711;28;20531;-58
2022/11/24 11:08:19;;;;;;;12.70;12.33;;;20.10;62.40;;;;;;5030279;28;20492;-58
2022/11/24 11:10:47;;;;;;;12.90;12.57;;;20.10;62.40;;;;;;5031648;28;20448;-56
2022/11/24 11:13:24;;;;;;;11.90;11.60;;;20.10;62.30;;;;;;5031539;28;20451;-59
2022/11/24 11:15:51;;;;;;;12.40;12.00;;;20.10;62.40;;;;;;5031777;28;20970;-58
2022/11/24 11:18:19;;;;;;;11.90;11.60;;;20.10;62.30;;;;;;5031526;28;21205;-59
2022/11/24 11:20:52;;;;;;;11.93;11.40;;;20.10;62.30;;;;;;5031650;28;20491;-59
2022/11/24 11:23:25;;;;;;;11.63;11.23;;;20.10;62.30;;;;;;5031312;28;20531;-59
2022/11/24 11:26:12;;;;;;;12.30;11.90;;;20.10;62.30;;;;;;5031432;28;20540;-59
2022/11/24 11:28:40;;;;;;;11.90;11.43;;;20.10;62.30;;;;;;5031356;28;20937;-60
2022/11/24 11:31:20;;;;;;;11.73;11.43;;;20.10;62.30;;;;;;5031304;28;20898;-58
2022/11/24 11:33:56;;;;;;;11.87;11.57;;;20.10;62.30;;;;;;5031529;28;20883;-59
2022/11/24 11:36:23;;;;;;;12.00;11.60;;;20.10;62.30;;;;;;5032181;28;20449;-55
2022/11/24 11:38:50;;;;;;;12.20;11.80;;;20.10;62.30;;;;;;5031190;28;20503;-59
2022/11/24 11:41:21;;;;;;;11.90;11.60;;;20.10;62.20;;;;;;5031215;28;20503;-56
2022/11/24 11:43:57;;;;;;;12.77;12.20;;;20.10;62.20;;;;;;5031271;28;20488;-57
2022/11/24 11:46:25;;;;;;;12.30;11.90;;;20.10;62.20;;;;;;5031460;28;20448;-58
2022/11/24 11:48:52;;;;;;;12.13;11.83;;;20.10;62.10;;;;;;5031032;28;21055;-58
2022/11/24 11:51:35;;;;;;;13.00;12.70;;;20.10;62.00;;;;;;5031104;28;20948;-54
2022/11/24 11:54:09;;;;;;;12.77;12.37;;;20.10;62.00;;;;;;5031188;28;20523;-59
2022/11/24 11:56:39;;;;;;;12.67;12.13;;;20.10;62.70;;;;;;5031249;28;20487;-60
2022/11/24 11:59:34;;;;;;;13.07;12.67;;;20.10;62.60;;;;;;5031179;28;20468;-58
2022/11/24 12:02:34;;;;;;;12.30;11.90;;;20.20;61.90;;;;;;5030974;28;20484;-56
2022/11/24 12:05:09;;;;;;;12.70;12.30;;;20.10;61.70;;;;;;5022283;28;20956;-55
2022/11/24 12:07:55;;;;;;;11.93;11.43;;;20.10;62.50;;;;;;5034895;28;21010;-57
2022/11/24 12:10:31;;;;;;;11.43;11.13;;;20.10;61.70;;;;;;5034882;28;20480;-55
2022/11/24 12:13:13;;;;;;;11.90;11.53;;;20.10;61.60;;;;;;5034662;28;20569;-55
2022/11/24 12:15:46;;;;;;;11.70;11.30;;;20.10;61.70;;;;;;5034761;28;20845;-55
2022/11/24 12:18:27;;;;;;;11.47;11.17;;;20.10;61.80;;;;;;5034632;28;20507;-58
2022/11/24 12:21:03;;;;;;;12.20;11.80;;;20.10;61.90;;;;;;5034570;28;20486;-57
2022/11/24 12:23:45;;;;;;;12.03;11.73;;;20.10;61.90;;;;;;5034632;28;20444;-58
2022/11/24 12:26:22;;;;;;;11.50;11.20;;;20.10;61.90;;;;;;5034663;28;20487;-56
2022/11/24 12:29:00;;;;;;;12.63;12.13;;;20.10;62.00;;;;;;5034385;28;20579;-58
2022/11/24 12:31:41;;;;;;;12.90;12.50;;;20.10;62.70;;;;;;5034444;28;20475;-56
2022/11/24 12:34:38;;;;;;;12.37;12.00;;;20.20;62.00;;;;;;5034524;28;20839;-57
2022/11/24 12:37:36;;;;;;;13.23;12.83;;;20.20;62.10;;;;;;5000454;28;20467;-58
2022/11/24 12:40:12;;;;;;;13.83;13.33;;;20.30;62.10;;;;;;5034470;28;20436;-55
2022/11/24 12:42:50;;;;;;;14.77;14.17;;;20.30;62.00;;;;;;5034149;28;20437;-56
2022/11/24 12:45:22;;;;;;;12.60;12.30;;;20.30;62.00;;;;;;5034337;28;20441;-56
2022/11/24 12:48:04;;;;;;;12.40;12.10;;;20.40;62.00;;;;;;5034269;28;20567;-58
2022/11/24 12:50:37;;;;;;;14.53;13.73;;;20.40;61.80;;;;;;5034089;28;20943;-58
2022/11/24 12:53:10;;;;;;;13.03;12.73;;;20.40;61.80;;;;;;5033886;28;20472;-57